createdAt,value
2019-04-05T00:00:09.794Z,10.50
2019-04-05T00:02:14.028Z,11.73
2019-04-05T00:04:17.904Z,12.10
2019-04-05T00:06:21.768Z,12.07
2019-04-05T00:08:25.705Z,11.47
2019-04-05T00:10:29.571Z,12.27
2019-04-05T00:12:33.434Z,11.50
2019-04-05T00:14:37.323Z,11.27
2019-04-05T00:16:41.187Z,12.23
2019-04-05T00:18:45.065Z,11.90
2019-04-05T00:20:48.984Z,11.50
2019-04-05T00:22:52.859Z,11.53
2019-04-05T00:24:56.721Z,12.57
2019-04-05T00:27:00.633Z,11.33
2019-04-05T00:29:04.497Z,11.63
2019-04-05T00:31:08.414Z,11.23
2019-04-05T00:33:12.268Z,10.43
2019-04-05T00:35:16.190Z,11.57
2019-04-05T00:37:20.097Z,11.03
2019-04-05T00:39:23.973Z,11.50
2019-04-05T00:41:27.942Z,12.53
2019-04-05T00:43:31.792Z,11.40
2019-04-05T00:45:35.656Z,10.90
2019-04-05T00:47:39.564Z,12.03
2019-04-05T00:49:43.440Z,11.77
2019-04-05T00:51:47.353Z,12.40
2019-04-05T00:53:51.252Z,12.73
2019-04-05T00:55:55.149Z,12.77
2019-04-05T00:57:59.062Z,12.97
2019-04-05T01:00:02.926Z,13.00
2019-04-05T01:02:06.896Z,12.70
2019-04-05T01:04:10.800Z,13.20
2019-04-05T01:06:14.664Z,12.73
2019-04-05T01:08:18.586Z,12.63
2019-04-05T01:10:23.076Z,13.70
2019-04-05T01:12:27.770Z,13.27
2019-04-05T01:14:32.288Z,12.87
2019-04-05T01:16:36.159Z,12.67
2019-04-05T01:18:40.033Z,12.90
2019-04-05T01:20:46.556Z,13.57
2019-04-05T01:22:50.404Z,13.20
2019-04-05T01:24:54.293Z,13.33
2019-04-05T01:27:00.227Z,13.43
2019-04-05T01:29:04.104Z,12.50
2019-04-05T01:31:08.009Z,14.33
2019-04-05T01:33:11.877Z,14.10
2019-04-05T01:35:16.039Z,12.80
2019-04-05T01:37:19.961Z,12.90
2019-04-05T01:39:25.845Z,14.13
2019-04-05T01:41:30.855Z,13.33
2019-04-05T01:43:34.730Z,12.80
2019-04-05T01:45:53.454Z,13.40
2019-04-05T01:47:51.593Z,13.40
2019-04-05T01:49:55.456Z,13.07
2019-04-05T01:51:59.384Z,12.80
2019-04-05T01:54:03.248Z,12.87
2019-04-05T01:56:07.163Z,13.77
2019-04-05T01:58:11.022Z,12.43
2019-04-05T02:00:15.569Z,13.33
2019-04-05T02:02:22.484Z,11.83
2019-04-05T02:04:26.771Z,11.83
2019-04-05T02:06:30.906Z,12.77
2019-04-05T02:08:36.709Z,12.97
2019-04-05T02:10:40.592Z,12.70
2019-04-05T02:12:44.617Z,12.87
2019-04-05T02:14:48.477Z,13.53
2019-04-05T02:16:53.861Z,13.30
2019-04-05T02:18:58.491Z,13.87
2019-04-05T02:21:02.369Z,13.07
2019-04-05T02:23:06.236Z,13.17
2019-04-05T02:25:10.136Z,13.03
2019-04-05T02:27:14.011Z,13.60
2019-04-05T02:29:21.271Z,12.10
2019-04-05T02:31:26.213Z,12.97
2019-04-05T02:33:30.076Z,14.03
2019-04-05T02:35:33.980Z,13.33
2019-04-05T02:37:37.950Z,12.20
2019-04-05T02:39:41.809Z,12.30
2019-04-05T02:41:46.323Z,12.70
2019-04-05T02:43:53.096Z,13.10
2019-04-05T02:45:57.739Z,11.97
2019-04-05T02:48:04.454Z,12.73
2019-04-05T02:50:08.927Z,12.23
2019-04-05T02:52:16.289Z,13.97
2019-04-05T02:54:20.263Z,12.23
2019-04-05T02:56:25.815Z,13.17
2019-04-05T02:58:30.689Z,12.30
2019-04-05T03:00:34.761Z,12.77
2019-04-05T03:02:40.091Z,12.00
2019-04-05T03:04:43.947Z,12.87
2019-04-05T03:06:49.373Z,12.17
2019-04-05T03:08:54.479Z,12.50
2019-04-05T03:11:06.742Z,11.80
2019-04-05T03:13:10.781Z,12.57
2019-04-05T03:15:17.472Z,12.13
2019-04-05T03:17:24.058Z,12.67
2019-04-05T03:19:31.220Z,12.77
2019-04-05T03:21:38.033Z,12.20
2019-04-05T03:23:44.755Z,11.60
2019-04-05T03:25:51.039Z,11.63
2019-04-05T03:27:54.930Z,11.67
2019-04-05T03:29:59.229Z,11.60
2019-04-05T03:32:03.825Z,11.13
2019-04-05T03:34:08.379Z,10.60
2019-04-05T03:36:15.077Z,11.70
2019-04-05T03:38:21.660Z,10.70
2019-04-05T03:40:25.930Z,11.27
2019-04-05T03:42:31.142Z,11.53
2019-04-05T03:44:36.187Z,11.63
2019-04-05T03:46:55.279Z,11.17
2019-04-05T03:48:46.757Z,10.70
2019-04-05T03:50:50.690Z,12.67
2019-04-05T03:52:54.553Z,11.37
2019-04-05T03:54:58.623Z,11.53
2019-04-05T03:57:05.682Z,11.80
2019-04-05T03:59:09.685Z,11.20
2019-04-05T04:01:13.814Z,12.20
2019-04-05T04:03:18.227Z,12.40
2019-04-05T04:05:22.316Z,11.63
2019-04-05T04:07:26.268Z,11.60
2019-04-05T04:09:30.145Z,11.23
2019-04-05T04:11:34.313Z,11.53
2019-04-05T04:13:39.007Z,11.63
2019-04-05T04:15:42.871Z,11.30
2019-04-05T04:17:46.961Z,10.43
2019-04-05T04:19:51.245Z,11.37
2019-04-05T04:22:15.699Z,10.57
2019-04-05T04:24:20.179Z,10.50
2019-04-05T04:26:24.041Z,12.17
2019-04-05T04:28:27.953Z,11.73
2019-04-05T04:30:32.833Z,11.70
2019-04-05T04:32:36.722Z,10.80
2019-04-05T04:34:40.625Z,11.00
2019-04-05T04:36:44.774Z,10.83
2019-04-05T04:38:49.678Z,11.23
2019-04-05T04:40:54.533Z,10.67
2019-04-05T04:42:58.639Z,11.30
2019-04-05T04:45:12.152Z,11.43
2019-04-05T04:47:09.484Z,10.83
2019-04-05T04:49:13.350Z,10.57
2019-04-05T04:51:18.420Z,11.37
2019-04-05T04:53:22.844Z,10.67
2019-04-05T04:55:27.148Z,11.63
2019-04-05T04:57:31.520Z,11.83
2019-04-05T04:59:35.729Z,11.40
2019-04-05T05:01:39.795Z,11.50
2019-04-05T05:03:43.688Z,11.60
2019-04-05T05:05:47.600Z,11.57
2019-04-05T05:07:51.764Z,11.10
2019-04-05T05:09:55.629Z,11.70
2019-04-05T05:11:59.535Z,12.30
2019-04-05T05:14:03.829Z,12.03
2019-04-05T05:16:07.858Z,12.03
2019-04-05T05:18:12.016Z,12.63
2019-04-05T05:20:15.884Z,10.70
2019-04-05T05:22:20.176Z,11.93
2019-04-05T05:24:24.402Z,11.67
2019-04-05T05:26:28.410Z,12.00
2019-04-05T05:28:32.845Z,11.50
2019-04-05T05:30:36.922Z,11.47
2019-04-05T05:32:40.908Z,12.10
2019-04-05T05:34:44.773Z,10.97
2019-04-05T05:36:49.169Z,11.97
2019-04-05T05:38:53.489Z,11.97
2019-04-05T05:40:57.380Z,10.67
2019-04-05T05:43:01.320Z,10.73
2019-04-05T05:45:08.715Z,11.78
2019-04-05T05:47:12.617Z,11.13
2019-04-05T05:49:16.539Z,10.87
2019-04-05T05:51:20.421Z,10.70
2019-04-05T05:53:24.370Z,11.67
2019-04-05T05:55:30.069Z,11.63
2019-04-05T05:57:33.819Z,11.40
2019-04-05T05:59:37.741Z,10.93
2019-04-05T06:01:41.622Z,11.27
2019-04-05T06:03:45.519Z,11.47
2019-04-05T06:05:49.437Z,11.57
2019-04-05T06:07:53.336Z,10.67
2019-04-05T06:09:57.268Z,10.50
2019-04-05T06:12:01.142Z,10.80
2019-04-05T06:14:05.051Z,11.10
2019-04-05T06:16:08.967Z,9.63
2019-04-05T06:18:12.885Z,10.33
2019-04-05T06:20:18.059Z,9.77
2019-04-05T06:22:22.021Z,10.97
2019-04-05T06:24:26.036Z,9.10
2019-04-05T06:26:29.949Z,10.43
2019-04-05T06:28:33.970Z,10.27
2019-04-05T06:30:37.870Z,9.97
2019-04-05T06:32:41.840Z,9.57
2019-04-05T06:34:45.712Z,9.97
2019-04-05T06:36:51.224Z,9.57
2019-04-05T06:38:55.317Z,10.43
2019-04-05T06:40:59.212Z,10.47
2019-04-05T06:43:03.173Z,9.63
2019-04-05T06:45:07.160Z,10.23
2019-04-05T06:47:11.041Z,9.47
2019-04-05T06:49:14.977Z,9.63
2019-04-05T06:51:18.857Z,9.73
2019-04-05T06:53:22.788Z,9.77
2019-04-05T06:55:27.515Z,10.53
2019-04-05T06:57:31.588Z,9.97
2019-04-05T06:59:35.516Z,8.43
2019-04-05T07:01:39.416Z,9.30
2019-04-05T07:03:43.331Z,9.67
2019-04-05T07:05:47.344Z,9.53
2019-04-05T07:07:51.269Z,9.93
2019-04-05T07:09:55.141Z,9.23
2019-04-05T07:11:59.069Z,9.90
2019-04-05T07:14:03.054Z,9.50
2019-04-05T07:16:06.935Z,10.47
2019-04-05T07:18:10.860Z,9.90
2019-04-05T07:20:15.088Z,10.17
2019-04-05T07:22:32.186Z,10.23
2019-04-05T07:24:24.530Z,10.03
2019-04-05T07:26:28.483Z,9.57
2019-04-05T07:28:32.371Z,10.17
2019-04-05T07:30:36.385Z,10.40
2019-04-05T07:32:40.325Z,10.20
2019-04-05T07:34:45.197Z,10.10
2019-04-05T07:36:49.132Z,10.70
2019-04-05T07:38:53.058Z,10.13
2019-04-05T07:40:57.094Z,10.00
2019-04-05T07:43:00.999Z,10.63
2019-04-05T07:45:06.694Z,11.53
2019-04-05T07:47:10.896Z,9.40
2019-04-05T07:49:14.872Z,11.70
2019-04-05T07:51:18.803Z,10.63
2019-04-05T07:53:22.823Z,9.80
2019-04-05T07:55:27.081Z,9.97
2019-04-05T07:57:31.174Z,10.00
2019-04-05T07:59:35.088Z,10.33
2019-04-05T08:01:42.375Z,10.43
2019-04-05T08:03:46.924Z,9.93
2019-04-05T08:05:52.144Z,10.07
2019-04-05T08:07:56.288Z,9.63
2019-04-05T08:10:02.888Z,10.83
2019-04-05T08:12:07.376Z,9.57
2019-04-05T08:14:12.243Z,9.63
2019-04-05T08:16:16.219Z,9.57
2019-04-05T08:18:20.136Z,12.37
2019-04-05T08:20:25.399Z,11.97
2019-04-05T08:22:32.188Z,10.17
2019-04-05T08:24:35.118Z,11.33
2019-04-05T08:26:39.009Z,10.63
2019-04-05T08:28:42.905Z,10.47
2019-04-05T08:30:46.840Z,11.17
2019-04-05T08:32:50.737Z,10.63
2019-04-05T08:34:54.677Z,11.23
2019-04-05T08:36:58.625Z,11.47
2019-04-05T08:39:02.539Z,11.03
2019-04-05T08:41:06.458Z,11.40
2019-04-05T08:43:10.346Z,12.37
2019-04-05T08:45:14.706Z,12.37
2019-04-05T08:47:18.593Z,11.77
2019-04-05T08:49:22.536Z,11.43
2019-04-05T08:51:26.412Z,11.13
2019-04-05T08:53:30.419Z,11.93
2019-04-05T08:55:34.334Z,12.23
2019-04-05T08:57:38.200Z,12.37
2019-04-05T08:59:42.130Z,12.07
2019-04-05T09:01:46.331Z,11.27
2019-04-05T09:03:50.225Z,12.23
2019-04-05T09:05:54.174Z,10.77
2019-04-05T09:07:58.050Z,11.43
2019-04-05T09:10:01.949Z,11.97
2019-04-05T09:12:05.859Z,11.23
2019-04-05T09:14:09.734Z,13.17
2019-04-05T09:16:13.679Z,12.30
2019-04-05T09:18:17.573Z,12.83
2019-04-05T09:20:21.902Z,13.07
2019-04-05T09:22:25.847Z,14.33
2019-04-05T09:24:29.721Z,12.33
2019-04-05T09:26:33.653Z,12.87
2019-04-05T09:28:37.559Z,13.67
2019-04-05T09:30:41.462Z,14.37
2019-04-05T09:32:45.396Z,13.03
2019-04-05T09:34:49.312Z,12.60
2019-04-05T09:36:53.192Z,12.67
2019-04-05T09:38:57.138Z,12.67
2019-04-05T09:41:01.030Z,11.20
2019-04-05T09:43:05.048Z,11.50
2019-04-05T09:45:08.941Z,12.37
2019-04-05T09:47:12.813Z,11.73
2019-04-05T09:49:16.862Z,11.53
2019-04-05T09:51:20.757Z,11.43
2019-04-05T09:53:24.661Z,11.20
2019-04-05T09:55:28.581Z,10.10
2019-04-05T09:57:32.457Z,10.40
2019-04-05T09:59:36.404Z,10.37
2019-04-05T10:01:40.306Z,9.43
2019-04-05T10:03:44.189Z,9.50
2019-04-05T10:05:48.117Z,10.50
2019-04-05T10:07:55.290Z,10.73
2019-04-05T10:09:57.590Z,8.93
2019-04-05T10:12:01.469Z,9.40
2019-04-05T10:14:05.396Z,10.23
2019-04-05T10:16:09.335Z,10.00
2019-04-05T10:18:13.205Z,8.60
2019-04-05T10:20:17.162Z,9.43
2019-04-05T10:22:21.060Z,9.50
2019-04-05T10:24:24.959Z,9.67
2019-04-05T10:26:28.872Z,8.53
2019-04-05T10:28:32.758Z,9.60
2019-04-05T10:30:36.709Z,10.40
2019-04-05T10:32:40.600Z,9.23
2019-04-05T10:34:44.481Z,10.77
2019-04-05T10:36:48.451Z,8.90
2019-04-05T10:38:52.358Z,10.50
2019-04-05T10:40:56.275Z,10.10
2019-04-05T10:43:00.187Z,9.93
2019-04-05T10:45:05.825Z,9.27
2019-04-05T10:47:09.800Z,8.87
2019-04-05T10:49:15.155Z,9.50
2019-04-05T10:51:19.288Z,8.80
2019-04-05T10:53:23.331Z,8.90
2019-04-05T10:55:27.220Z,7.87
2019-04-05T10:57:31.089Z,8.20
2019-04-05T10:59:35.013Z,8.70
2019-04-05T11:01:38.913Z,8.83
2019-04-05T11:03:42.838Z,7.80
2019-04-05T11:05:49.742Z,8.90
2019-04-05T11:07:53.577Z,8.87
2019-04-05T11:09:57.550Z,8.00
2019-04-05T11:12:01.454Z,6.90
2019-04-05T11:14:13.567Z,8.30
2019-04-05T11:16:11.022Z,8.03
2019-04-05T11:18:14.898Z,8.47
2019-04-05T11:20:22.447Z,7.63
2019-04-05T11:22:24.782Z,8.47
2019-04-05T11:24:28.695Z,8.43
2019-04-05T11:26:32.693Z,8.40
2019-04-05T11:28:36.602Z,9.70
2019-04-05T11:30:42.529Z,7.87
2019-04-05T11:32:47.117Z,7.97
2019-04-05T11:34:50.985Z,8.17
2019-04-05T11:36:55.408Z,7.57
2019-04-05T11:38:59.385Z,7.10
2019-04-05T11:41:04.225Z,7.47
2019-04-05T11:43:08.144Z,7.47
2019-04-05T11:45:12.133Z,7.40
2019-04-05T11:47:19.030Z,7.63
2019-04-05T11:49:22.086Z,7.13
2019-04-05T11:51:25.976Z,7.43
2019-04-05T11:53:30.020Z,7.27
2019-04-05T11:55:33.896Z,6.70
2019-04-05T11:57:41.028Z,6.93
2019-04-05T11:59:43.342Z,6.83
2019-04-05T12:01:51.765Z,6.77
2019-04-05T12:03:55.683Z,7.10
2019-04-05T12:05:59.566Z,7.00
2019-04-05T12:08:03.469Z,6.60
2019-04-05T12:10:09.449Z,6.50
2019-04-05T12:12:13.394Z,7.13
2019-04-05T12:14:29.704Z,6.77
2019-04-05T12:16:22.972Z,6.53
2019-04-05T12:18:26.980Z,7.70
2019-04-05T12:20:33.263Z,7.27
2019-04-05T12:22:36.425Z,7.53
2019-04-05T12:24:40.341Z,6.90
2019-04-05T12:26:44.267Z,7.80
2019-04-05T12:28:48.144Z,8.03
2019-04-05T12:30:52.068Z,7.73
2019-04-05T12:32:55.978Z,7.50
2019-04-05T12:34:59.988Z,8.43
2019-04-05T12:37:03.898Z,8.13
2019-04-05T12:39:08.477Z,7.60
2019-04-05T12:41:12.511Z,8.30
2019-04-05T12:43:16.389Z,8.70
2019-04-05T12:45:20.367Z,8.50
2019-04-05T12:47:24.260Z,8.30
2019-04-05T12:49:28.143Z,7.90
2019-04-05T12:51:32.352Z,7.90
2019-04-05T12:53:36.224Z,8.53
2019-04-05T12:55:40.141Z,7.63
2019-04-05T12:57:44.047Z,9.13
2019-04-05T12:59:48.206Z,8.23
2019-04-05T13:01:53.558Z,8.23
2019-04-05T13:03:58.791Z,7.90
2019-04-05T13:06:02.830Z,8.33
2019-04-05T13:08:06.800Z,7.97
2019-04-05T13:10:10.778Z,8.47
2019-04-05T13:12:14.660Z,8.00
2019-04-05T13:14:18.613Z,8.97
2019-04-05T13:16:22.514Z,8.60
2019-04-05T13:18:26.404Z,8.10
2019-04-05T13:20:31.963Z,8.00
2019-04-05T13:22:35.862Z,7.70
2019-04-05T13:24:40.401Z,7.97
2019-04-05T13:26:44.638Z,8.47
2019-04-05T13:28:49.168Z,7.63
2019-04-05T13:30:55.320Z,7.50
2019-04-05T13:32:58.677Z,8.23
2019-04-05T13:35:02.582Z,8.20
2019-04-05T13:37:19.267Z,7.83
2019-04-05T13:39:12.136Z,7.43
2019-04-05T13:41:18.926Z,8.37
2019-04-05T13:43:21.633Z,7.27
2019-04-05T13:45:25.512Z,8.33
2019-04-05T13:47:29.465Z,8.80
2019-04-05T13:49:33.433Z,7.13
2019-04-05T13:51:37.308Z,7.97
2019-04-05T13:53:41.284Z,7.93
2019-04-05T13:55:47.361Z,8.37
2019-04-05T13:57:50.712Z,8.53
2019-04-05T13:59:54.648Z,7.77
2019-04-05T14:02:05.954Z,7.57
2019-04-05T14:04:04.068Z,8.17
2019-04-05T14:06:10.622Z,8.40
2019-04-05T14:08:13.533Z,8.90
2019-04-05T14:10:17.478Z,8.83
2019-04-05T14:12:21.400Z,7.47
2019-04-05T14:14:28.222Z,8.70
2019-04-05T14:16:30.847Z,7.87
2019-04-05T14:18:34.799Z,7.37
2019-04-05T14:20:38.801Z,7.93
2019-04-05T14:22:42.689Z,7.90
2019-04-05T14:24:46.581Z,8.37
2019-04-05T14:26:50.517Z,7.93
2019-04-05T14:28:54.401Z,7.80
2019-04-05T14:30:58.320Z,9.07
2019-04-05T14:33:02.245Z,8.57
2019-04-05T14:35:08.351Z,9.47
2019-04-05T14:37:12.269Z,8.57
2019-04-05T14:39:16.287Z,9.27
2019-04-05T14:41:20.219Z,9.43
2019-04-05T14:43:24.189Z,9.40
2019-04-05T14:45:28.104Z,8.03
2019-04-05T14:47:31.986Z,7.90
2019-04-05T14:49:35.887Z,8.77
2019-04-05T14:51:52.238Z,8.90
2019-04-05T14:53:45.485Z,8.53
2019-04-05T14:55:49.352Z,8.63
2019-04-05T14:57:53.296Z,8.67
2019-04-05T14:59:57.182Z,9.03
2019-04-05T15:02:01.590Z,9.33
2019-04-05T15:04:05.567Z,9.10
2019-04-05T15:06:09.445Z,9.63
2019-04-05T15:08:13.356Z,8.93
2019-04-05T15:10:17.269Z,9.63
2019-04-05T15:12:21.164Z,9.13
2019-04-05T15:14:25.115Z,9.50
2019-04-05T15:16:29.008Z,9.63
2019-04-05T15:18:32.907Z,10.10
2019-04-05T15:20:36.828Z,9.67
2019-04-05T15:22:42.225Z,9.63
2019-04-05T15:24:47.092Z,10.03
2019-04-05T15:26:52.160Z,10.40
2019-04-05T15:28:56.190Z,8.77
2019-04-05T15:31:00.077Z,9.03
2019-04-05T15:33:04.405Z,9.83
2019-04-05T15:35:08.998Z,9.13
2019-04-05T15:37:15.766Z,9.83
2019-04-05T15:39:18.491Z,9.80
2019-04-05T15:41:22.365Z,12.83
2019-04-05T15:43:26.264Z,9.77
2019-04-05T15:45:30.210Z,10.00
2019-04-05T15:47:34.125Z,9.23
2019-04-05T15:49:38.080Z,9.13
2019-04-05T15:51:41.987Z,11.00
2019-04-05T15:53:45.899Z,10.80
2019-04-05T15:55:49.774Z,9.87
2019-04-05T15:57:53.667Z,10.47
2019-04-05T15:59:57.596Z,11.73
2019-04-05T16:02:03.785Z,9.90
2019-04-05T16:04:07.044Z,10.53
2019-04-05T16:06:10.966Z,10.63
2019-04-05T16:08:17.842Z,10.83
2019-04-05T16:10:21.797Z,9.77
2019-04-05T16:12:25.708Z,11.30
2019-04-05T16:14:29.585Z,10.63
2019-04-05T16:16:33.510Z,12.53
2019-04-05T16:18:37.422Z,11.10
2019-04-05T16:20:41.322Z,11.40
2019-04-05T16:22:45.253Z,11.00
2019-04-05T16:24:49.134Z,12.00
2019-04-05T16:26:53.183Z,11.80
2019-04-05T16:28:57.088Z,11.40
2019-04-05T16:31:01.001Z,12.10
2019-04-05T16:33:04.924Z,11.60
2019-04-05T16:35:08.832Z,11.70
2019-04-05T16:37:12.827Z,11.13
2019-04-05T16:39:18.356Z,10.57
2019-04-05T16:41:22.274Z,10.90
2019-04-05T16:43:26.174Z,11.33
2019-04-05T16:45:30.097Z,11.17
2019-04-05T16:47:34.001Z,11.17
2019-04-05T16:49:37.914Z,9.90
2019-04-05T16:51:41.808Z,11.50
2019-04-05T16:54:01.888Z,10.83
2019-04-05T16:56:05.842Z,9.93
2019-04-05T16:58:09.829Z,10.17
2019-04-05T17:00:14.668Z,11.07
2019-04-05T17:02:18.572Z,11.13
2019-04-05T17:04:22.492Z,10.27
2019-04-05T17:06:26.412Z,11.43
2019-04-05T17:08:30.277Z,10.67
2019-04-05T17:10:34.396Z,11.70
2019-04-05T17:12:38.301Z,11.50
2019-04-05T17:14:42.172Z,10.23
2019-04-05T17:16:46.098Z,11.07
2019-04-05T17:18:49.984Z,11.73
2019-04-05T17:20:53.917Z,10.87
2019-04-05T17:22:58.822Z,11.47
2019-04-05T17:25:03.048Z,10.80
2019-04-05T17:27:06.939Z,9.93
2019-04-05T17:29:10.816Z,10.53
2019-04-05T17:31:14.741Z,10.17
2019-04-05T17:33:18.651Z,10.13
2019-04-05T17:35:22.537Z,10.43
2019-04-05T17:37:26.868Z,10.37
2019-04-05T17:39:30.800Z,11.13
2019-04-05T17:41:34.703Z,10.60
2019-04-05T17:43:38.651Z,10.93
2019-04-05T17:45:42.532Z,10.67
2019-04-05T17:47:46.459Z,10.97
2019-04-05T17:49:50.348Z,11.63
2019-04-05T17:51:54.438Z,11.10
2019-04-05T17:53:58.344Z,10.87
2019-04-05T17:56:02.726Z,10.20
2019-04-05T17:58:07.196Z,11.20
2019-04-05T18:00:12.863Z,11.83
2019-04-05T18:02:16.784Z,11.00
2019-04-05T18:04:20.705Z,11.50
2019-04-05T18:06:24.604Z,11.43
2019-04-05T18:08:28.528Z,11.27
2019-04-05T18:10:32.432Z,11.30
2019-04-05T18:12:36.366Z,11.37
2019-04-05T18:14:40.264Z,10.00
2019-04-05T18:16:44.189Z,12.37
2019-04-05T18:18:48.082Z,9.13
2019-04-05T18:20:52.012Z,11.43
2019-04-05T18:22:55.956Z,11.33
2019-04-05T18:24:59.850Z,11.37
2019-04-05T18:27:03.788Z,11.57
2019-04-05T18:29:07.686Z,11.97
2019-04-05T18:31:11.576Z,9.67
2019-04-05T18:33:15.495Z,9.83
2019-04-05T18:35:19.404Z,11.57
2019-04-05T18:37:23.372Z,10.30
2019-04-05T18:39:27.280Z,9.30
2019-04-05T18:41:31.168Z,11.90
2019-04-05T18:43:35.141Z,10.97
2019-04-05T18:45:39.264Z,9.90
2019-04-05T18:47:43.229Z,13.40
2019-04-05T18:49:47.182Z,12.90
2019-04-05T18:51:51.104Z,10.70
2019-04-05T18:53:55.070Z,12.10
2019-04-05T18:55:58.967Z,12.07
2019-04-05T18:58:02.857Z,11.17
2019-04-05T19:00:08.010Z,11.93
2019-04-05T19:02:11.927Z,12.17
2019-04-05T19:04:15.804Z,12.43
2019-04-05T19:06:19.734Z,13.13
2019-04-05T19:08:23.626Z,13.17
2019-04-05T19:10:36.799Z,11.97
2019-04-05T19:12:33.136Z,11.50
2019-04-05T19:14:37.020Z,13.60
2019-04-05T19:16:40.940Z,12.40
2019-04-05T19:18:44.873Z,13.07
2019-04-05T19:20:48.773Z,11.67
2019-04-05T19:22:52.700Z,14.57
2019-04-05T19:24:56.650Z,11.97
2019-04-05T19:27:00.527Z,11.63
2019-04-05T19:29:04.930Z,11.23
2019-04-05T19:49:59.032Z,12.80
2019-04-05T19:52:02.916Z,13.27
2019-04-05T19:54:06.866Z,13.50
2019-04-05T19:56:10.756Z,14.07
2019-04-05T19:58:14.697Z,13.63
2019-04-05T20:00:19.062Z,12.03
2019-04-05T20:02:22.961Z,11.17
2019-04-05T20:04:26.869Z,11.93
2019-04-05T20:06:30.789Z,12.63
2019-04-05T20:08:34.669Z,12.03
2019-04-05T20:10:38.618Z,13.77
2019-04-05T20:12:42.502Z,13.47
2019-04-05T20:14:46.392Z,12.77
2019-04-05T20:16:50.317Z,12.40
2019-04-05T20:18:54.191Z,12.10
2019-04-05T20:20:58.120Z,13.97
2019-04-05T20:23:02.011Z,13.73
2019-04-05T20:25:07.212Z,14.47
2019-04-05T20:27:11.150Z,16.07
2019-04-05T20:29:15.065Z,14.57
2019-04-05T20:31:18.993Z,14.23
2019-04-05T20:33:22.880Z,15.27
2019-04-05T20:35:26.760Z,14.43
2019-04-05T20:37:30.720Z,14.00
2019-04-05T20:39:34.588Z,13.20
2019-04-05T20:41:38.497Z,15.07
2019-04-05T20:43:42.434Z,13.93
2019-04-05T20:45:46.334Z,14.43
2019-04-05T20:47:50.246Z,14.57
2019-04-05T20:49:54.173Z,15.00
2019-04-05T20:51:58.051Z,14.27
2019-04-05T20:54:01.963Z,14.80
2019-04-05T20:56:05.908Z,13.47
2019-04-05T20:58:09.796Z,15.00
2019-04-05T21:00:14.288Z,13.87
2019-04-05T21:02:18.181Z,13.80
2019-04-05T21:04:22.095Z,12.03
2019-04-05T21:06:26.004Z,13.57
2019-04-05T21:08:29.915Z,13.80
2019-04-05T21:10:34.110Z,14.07
2019-04-05T21:12:38.072Z,14.47
2019-04-05T21:14:41.940Z,14.57
2019-04-05T21:16:45.907Z,14.43
2019-04-05T21:18:49.780Z,14.10
2019-04-05T21:20:53.681Z,13.77
2019-04-05T21:22:57.639Z,14.37
2019-04-05T21:25:01.564Z,14.23
2019-04-05T21:27:05.494Z,14.83
2019-04-05T21:29:09.404Z,14.17
2019-04-05T21:31:13.311Z,15.93
2019-04-05T21:33:17.245Z,14.53
2019-04-05T21:35:21.136Z,13.33
2019-04-05T21:37:25.059Z,13.60
2019-04-05T21:39:28.968Z,13.20
2019-04-05T21:41:32.865Z,13.50
2019-04-05T21:43:36.802Z,11.67
2019-04-05T21:45:40.686Z,13.20
2019-04-05T21:47:44.601Z,12.53
2019-04-05T21:49:48.508Z,12.53
2019-04-05T21:51:52.418Z,12.03
2019-04-05T21:53:56.383Z,14.23
2019-04-05T21:56:00.253Z,14.20
2019-04-05T21:58:04.169Z,15.53
2019-04-05T22:00:31.374Z,14.13
2019-04-05T22:02:35.287Z,13.37
2019-04-05T22:04:39.416Z,12.73
2019-04-05T22:06:43.292Z,15.83
2019-04-05T22:08:47.251Z,14.27
2019-04-05T22:10:51.123Z,13.20
2019-04-05T22:12:55.024Z,13.60
2019-04-05T22:14:58.912Z,14.37
2019-04-05T22:17:02.813Z,13.30
2019-04-05T22:19:06.778Z,14.10
2019-04-05T22:21:10.663Z,14.77
2019-04-05T22:23:14.593Z,13.53
2019-04-05T22:25:18.489Z,13.37
2019-04-05T22:27:22.424Z,13.53
2019-04-05T22:29:26.394Z,12.07
2019-04-05T22:31:30.273Z,11.60
2019-04-05T22:33:34.238Z,11.40
2019-04-05T22:35:38.103Z,13.03
2019-04-05T22:37:42.072Z,13.13
2019-04-05T22:39:45.977Z,12.43
2019-04-05T22:41:49.885Z,12.07
2019-04-05T22:43:53.804Z,13.03
2019-04-05T22:45:57.694Z,12.20
2019-04-05T22:48:01.599Z,12.67
2019-04-05T22:50:07.645Z,14.37
2019-04-05T22:52:11.596Z,14.10
2019-04-05T22:54:15.517Z,12.97
2019-04-05T22:56:19.442Z,14.80
2019-04-05T22:58:23.319Z,14.23
2019-04-05T23:00:27.274Z,13.93
2019-04-05T23:02:31.157Z,13.67
2019-04-05T23:04:35.060Z,14.03
2019-04-05T23:06:39.004Z,12.57
2019-04-05T23:08:42.923Z,13.27
2019-04-05T23:10:46.805Z,14.13
2019-04-05T23:12:50.723Z,12.87
2019-04-05T23:14:54.617Z,11.73
2019-04-05T23:16:58.529Z,12.40
2019-04-05T23:19:02.461Z,10.67
2019-04-05T23:21:06.341Z,12.00
2019-04-05T23:23:10.254Z,12.33
2019-04-05T23:25:21.783Z,10.10
2019-04-05T23:27:19.710Z,10.23
2019-04-05T23:29:23.655Z,11.47
2019-04-05T23:31:27.537Z,13.00
2019-04-05T23:33:31.429Z,13.63
2019-04-05T23:35:35.365Z,12.83
2019-04-05T23:37:39.257Z,12.63
2019-04-05T23:39:43.188Z,11.70
2019-04-05T23:41:47.228Z,9.77
2019-04-05T23:43:51.121Z,11.70
2019-04-05T23:45:55.013Z,11.73
2019-04-05T23:47:58.980Z,11.33
2019-04-05T23:50:02.870Z,11.30
2019-04-05T23:52:06.797Z,11.63
2019-04-05T23:54:10.692Z,10.37
2019-04-05T23:56:14.617Z,8.20
2019-04-05T23:58:18.567Z,9.60
